London Express — DPLE — position and weather

sailwx.info

Track history (hours):
 
Tides and Currents Weather Stations Pressure Air Temp Water Temp Dewpoint Dewpoint Depression Visibility Wind Speed Wind Dir Waves Ship Positions

London Express

Last reported at 2015-Sep-03 12:00 UTC. Time now 2015-Sep-04 05:54 UTC.
Position N 19°24' W 105°24'.

Length 294 m; beam 32.3 m; draft 13.6 m.

Type: Ship. MMSI: 211262630.

Wind from 090 at 5 knots

Barometer 1010.1 mb
Air temperature 28.6 ° C
Visibility: greater than 10.8 NM
Dewpoint 24.8 ° C
Water temperature 31.0 ° C

Date/timePositionNaut miles runAvg speedWind from/ knotsBaromVisibWave heightAir tempDewpointWater temp
2015-Sep-03 12:00N 19°24' W 105°24'36817.5 090 / 51010.110.8 28.624.831.0
2015-Sep-02 15:00N 22°36' W 111°00'5719.0 040 / 81013.010.8 0.528.824.631.0
2015-Sep-02 12:00N 23°12' W 111°48'21217.7 310 / 61011.710.8 27.424.528.0
2015-Sep-02 00:00N 25°54' W 114°18'5317.7 300 / 111012.510.8 25.320.327.0
2015-Sep-01 21:00N 26°36' W 114°54'5317.6 360 / 91013.010.8 1.025.819.725.0
2015-Sep-01 18:00N 27°18' W 115°30'9916.6 350 / 91014.410.8 1.528.017.825.0
2015-Sep-01 12:00N 28°48' W 116°18'12416.1 320 / 121013.310.8 20.216.024.0
2015-Sep-01 04:18N 30°44' W 117°07'1612.3
2015-Sep-01 03:00N 31°00' W 117°12'2819.6 320 / 131012.6 5.4 19.916.323.0
2015-Sep-01 01:33N 31°27' W 117°21'1616.2
2015-Sep-01 00:33N 31°43' W 117°27'610.7
2015-Sep-01 00:00N 31°48' W 117°30'1619.4 260 / 141011.910.8 0.520.816.823.0
2015-Aug-31 23:09N 32°04' W 117°34'914.7
2015-Aug-31 22:33N 32°12' W 117°37'1312.7
2015-Aug-31 21:33N 32°24' W 117°42'1211.9
2015-Aug-31 20:33N 32°36' W 117°46'1010.1
2015-Aug-31 19:33N 32°45' W 117°51'1010.1
2015-Aug-31 18:33N 32°55' W 117°54'1010.1
2015-Aug-31 17:33N 33°04' W 117°59'1010.0
2015-Aug-31 16:33N 33°13' W 118°03'1010.3
2015-Aug-31 15:33N 33°23' W 118°08'1010.2
2015-Aug-31 14:33N 33°33' W 118°12'10 9.8
2015-Aug-31 13:33N 33°42' W 118°15'2 1.9
2015-Aug-31 12:33N 33°44' W 118°15'0 0.0
2015-Aug-31 11:32N 33°44' W 118°15'0 0.0
2015-Aug-31 10:32N 33°44' W 118°15'0 0.0
2015-Aug-31 09:31N 33°44' W 118°15'0 0.0
2015-Aug-31 08:31N 33°44' W 118°15'0 0.0
2015-Aug-31 07:31N 33°44' W 118°15'0 0.0
2015-Aug-31 06:33N 33°44' W 118°15'0 0.0
2015-Aug-31 05:33N 33°44' W 118°15'0 0.0
2015-Aug-31 04:23N 33°44' W 118°15'0 0.0
2015-Aug-31 03:29N 33°44' W 118°15'0 0.0
2015-Aug-31 02:31N 33°44' W 118°15'0 0.0
2015-Aug-31 01:31N 33°44' W 118°15'0 0.0
2015-Aug-31 00:31N 33°44' W 118°15'0 0.0
2015-Aug-30 23:33N 33°44' W 118°15'0 0.0
2015-Aug-30 22:34N 33°44' W 118°15'2 2.0
2015-Aug-30 21:34N 33°42' W 118°14'8 8.1
2015-Aug-30 20:33N 33°37' W 118°22'1211.7
2015-Aug-30 19:33N 33°42' W 118°34'1312.6
2015-Aug-30 18:33N 33°48' W 118°47'3115.6
2015-Aug-30 16:33N 34°03' W 119°20'2314.9
2015-Aug-30 15:00N 34°06' W 119°48'4615.4 300 / 261012.4 5.4 21.515.321.0
2015-Aug-30 12:00N 34°18' W 120°42'2718.7 330 / 211014.110.8 17.916.419.0
2015-Aug-30 10:31N 34°38' W 121°05'4118.5
2015-Aug-30 08:16N 35°12' W 121°34'3716.1
2015-Aug-30 06:00N 35°42' W 122°00'5117.0 320 / 221016.210.8 18.016.319.0
2015-Aug-30 03:00N 36°24' W 122°36'3821.1 320 / 121016.210.8 18.416.020.0
2015-Aug-30 01:11N 36°58' W 122°58'1518.6
2015-Aug-30 00:24N 37°10' W 123°07'410.3
2015-Aug-30 00:00N 37°12' W 123°12'2024.2 270 / 41016.710.8 0.520.815.819.0
2015-Aug-29 23:11N 37°30' W 123°21'1318.1
2015-Aug-29 22:28N 37°41' W 123°29'1718.5
2015-Aug-29 21:33N 37°56' W 123°39'1818.1
2015-Aug-29 20:33N 38°12' W 123°50'1817.9
2015-Aug-29 19:33N 38°28' W 124°01'8117.7
2015-Aug-29 15:00N 39°42' W 124°42'5016.6 180 / 161013.110.8 17.716.418.0
2015-Aug-29 12:00N 40°30' W 125°00'15617.3 210 / 201009.910.8 17.115.417.0
2015-Aug-29 03:00N 43°06' W 125°06'2026.3 130 / 101006.3 5.4 16.915.918.0
2015-Aug-29 02:14N 43°26' W 125°12'3218.7
2015-Aug-29 00:31N 43°57' W 125°12'6218.6
2015-Aug-28 21:12N 44°59' W 125°15'2018.5
2015-Aug-28 20:08N 45°19' W 125°16'1418.9
2015-Aug-28 19:25N 45°32' W 125°17'1719.0
2015-Aug-28 18:33N 45°49' W 125°17'1918.6
2015-Aug-28 17:33N 46°07' W 125°18'1918.6
2015-Aug-28 16:32N 46°26' W 125°18'1918.9
2015-Aug-28 15:33N 46°45' W 125°19'5191.7
2015-Aug-28 15:00N 45°54' W 125°18'11438.0 210 / 101014.710.8 0.517.814.918.0
2015-Aug-28 12:00N 47°48' W 125°18'3018.8 170 / 251013.2 5.4 16.414.918.0
2015-Aug-28 10:25N 48°17' W 125°11'1517.2
2015-Aug-28 09:33N 48°30' W 125°01'1717.4
2015-Aug-28 08:33N 48°29' W 124°35'1818.0
2015-Aug-28 07:33N 48°22' W 124°10'1817.3
2015-Aug-28 06:32N 48°17' W 123°44'1414.0
2015-Aug-28 05:33N 48°22' W 123°25'1111.2
2015-Aug-28 04:33N 48°30' W 123°12'1616.0
2015-Aug-28 03:33N 48°45' W 123°06'1414.2
2015-Aug-28 02:33N 48°58' W 123°15'9 9.4
2015-Aug-28 01:33N 49°07' W 123°16'1010.2
2015-Aug-28 00:33N 49°09' W 123°01'4 3.9
2015-Aug-27 23:28N 49°11' W 122°55'0 0.0
2015-Aug-27 22:28N 49°11' W 122°55'0 0.0
2015-Aug-27 21:33N 49°11' W 122°55'0 0.0
2015-Aug-27 20:33N 49°11' W 122°55'0 0.0
2015-Aug-27 19:32N 49°11' W 122°55'0 0.0
2015-Aug-27 18:32N 49°11' W 122°55'0 0.0
2015-Aug-27 17:29N 49°11' W 122°55'0 0.0
2015-Aug-27 16:31N 49°11' W 122°55'0 0.0
2015-Aug-27 15:25N 49°11' W 122°55'0 0.0
2015-Aug-27 14:24N 49°11' W 122°55'0 0.0
2015-Aug-27 13:30N 49°11' W 122°55'0 0.0
2015-Aug-27 12:29N 49°11' W 122°55'0 0.0
2015-Aug-27 11:29N 49°11' W 122°55'0 0.0
2015-Aug-27 10:32N 49°11' W 122°55'0 0.0
2015-Aug-27 09:28N 49°11' W 122°55'0 0.0
2015-Aug-27 08:28N 49°11' W 122°55'0 0.0
2015-Aug-27 07:33N 49°11' W 122°55'0 0.0
2015-Aug-27 06:33N 49°11' W 122°55'0 0.0
2015-Aug-27 05:32N 49°11' W 122°55'0 0.0
2015-Aug-27 04:32N 49°11' W 122°55'0 0.0
2015-Aug-27 03:31N 49°11' W 122°55'0 0.0
2015-Aug-27 02:31N 49°11' W 122°55'0 0.0
2015-Aug-27 01:31N 49°11' W 122°55'0 0.0
2015-Aug-27 00:30N 49°11' W 122°55'0 0.0
2015-Aug-26 23:33N 49°11' W 122°55'0 0.0
2015-Aug-26 22:29N 49°11' W 122°55'0 0.0
2015-Aug-26 21:32N 49°11' W 122°55'2 1.8
2015-Aug-26 20:33N 49°10' W 122°56'1010.0
2015-Aug-26 19:33N 49°07' W 123°11'6 6.4
2015-Aug-26 18:33N 49°03' W 123°18'1616.0
2015-Aug-26 17:33N 48°50' W 123°02'1514.8
2015-Aug-26 16:33N 48°38' W 123°14'1414.2
2015-Aug-26 15:33N 48°24' W 123°13'1212.2
2015-Aug-26 14:33N 48°15' W 123°26'1010.0
2015-Aug-26 13:32N 48°11' W 123°12'1818.6
2015-Aug-26 12:34N 48°10' W 122°45'2020.0
2015-Aug-26 11:34N 47°54' W 122°28'1918.5
2015-Aug-26 10:34N 47°35' W 122°26'1616.1
2015-Aug-26 09:34N 47°19' W 122°27'5 4.9
2015-Aug-26 08:33N 47°15' W 122°23'0 0.0
2015-Aug-26 06:32N 47°15' W 122°23'0 0.0
2015-Aug-26 05:31N 47°15' W 122°23'0 0.0
2015-Aug-26 04:31N 47°15' W 122°23'0 0.0
2015-Aug-26 03:30N 47°15' W 122°23'0 0.0
2015-Aug-26 02:30N 47°15' W 122°23'0 0.0
2015-Aug-26 01:05N 47°15' W 122°23'0 0.0
2015-Aug-26 00:29N 47°15' W 122°23'0 0.0
2015-Aug-25 23:29N 47°15' W 122°23'0 0.0
2015-Aug-25 22:28N 47°15' W 122°23'0 0.0
2015-Aug-25 21:28N 47°15' W 122°23'0 0.0
2015-Aug-25 20:33N 47°15' W 122°23'0 0.0
2015-Aug-25 19:33N 47°15' W 122°23'0 0.0
2015-Aug-25 18:33N 47°15' W 122°23'0 0.0
2015-Aug-25 17:32N 47°15' W 122°23'0 0.0
2015-Aug-25 16:32N 47°15' W 122°23'0 0.0
2015-Aug-25 15:31N 47°15' W 122°23'0 0.0
2015-Aug-25 14:31N 47°15' W 122°23'0 0.0
2015-Aug-25 13:30N 47°15' W 122°23'0 0.0
2015-Aug-25 12:30N 47°15' W 122°23'0 0.0
2015-Aug-25 11:24N 47°15' W 122°23'0 0.0
2015-Aug-25 10:23N 47°15' W 122°23'0 0.0
2015-Aug-25 07:22N 47°15' W 122°23'0 0.0
2015-Aug-25 06:33N 47°15' W 122°23'0 0.0
2015-Aug-25 05:33N 47°15' W 122°23'0 0.0
2015-Aug-25 04:32N 47°15' W 122°23'0 0.0
2015-Aug-25 03:23N 47°15' W 122°23'0 0.0
2015-Aug-24 21:17N 47°15' W 122°23'0 0.0
2015-Aug-24 20:32N 47°15' W 122°23'0 0.0
2015-Aug-24 16:18N 47°15' W 122°23'0 0.0
2015-Aug-24 13:13N 47°15' W 122°23'0 0.1
2015-Aug-24 12:33N 47°15' W 122°23'  
Track history (hours):
 
Tides and Currents Weather Stations Pressure Air Temp Water Temp Dewpoint Dewpoint Depression Visibility Wind Speed Wind Dir Waves Ship Positions

London Express

Last reported at 2015-Sep-03 12:00 UTC. Time now 2015-Sep-04 05:54 UTC.
Position N 19°24' W 105°24'.

Length 294 m; beam 32.3 m; draft 13.6 m.

Type: Ship. MMSI: 211262630.

Wind from 090 at 5 knots

Barometer 1010.1 mb
Air temperature 28.6 ° C
Visibility: greater than 10.8 NM
Dewpoint 24.8 ° C
Water temperature 31.0 ° C

Date/timePositionNaut miles runAvg speedWind from/ knotsBaromVisibWave heightAir tempDewpointWater temp
2015-Sep-03 12:00N 19°24' W 105°24'36817.5 090 / 51010.110.8 28.624.831.0
2015-Sep-02 15:00N 22°36' W 111°00'5719.0 040 / 81013.010.8 0.528.824.631.0
2015-Sep-02 12:00N 23°12' W 111°48'21217.7 310 / 61011.710.8 27.424.528.0
2015-Sep-02 00:00N 25°54' W 114°18'5317.7 300 / 111012.510.8 25.320.327.0
2015-Sep-01 21:00N 26°36' W 114°54'5317.6 360 / 91013.010.8 1.025.819.725.0
2015-Sep-01 18:00N 27°18' W 115°30'9916.6 350 / 91014.410.8 1.528.017.825.0
2015-Sep-01 12:00N 28°48' W 116°18'12416.1 320 / 121013.310.8 20.216.024.0
2015-Sep-01 04:18N 30°44' W 117°07'1612.3
2015-Sep-01 03:00N 31°00' W 117°12'2819.6 320 / 131012.6 5.4 19.916.323.0
2015-Sep-01 01:33N 31°27' W 117°21'1616.2
2015-Sep-01 00:33N 31°43' W 117°27'610.7
2015-Sep-01 00:00N 31°48' W 117°30'1619.4 260 / 141011.910.8 0.520.816.823.0
2015-Aug-31 23:09N 32°04' W 117°34'914.7
2015-Aug-31 22:33N 32°12' W 117°37'1312.7
2015-Aug-31 21:33N 32°24' W 117°42'1211.9
2015-Aug-31 20:33N 32°36' W 117°46'1010.1
2015-Aug-31 19:33N 32°45' W 117°51'1010.1
2015-Aug-31 18:33N 32°55' W 117°54'1010.1
2015-Aug-31 17:33N 33°04' W 117°59'1010.0
2015-Aug-31 16:33N 33°13' W 118°03'1010.3
2015-Aug-31 15:33N 33°23' W 118°08'1010.2
2015-Aug-31 14:33N 33°33' W 118°12'10 9.8
2015-Aug-31 13:33N 33°42' W 118°15'2 1.9
2015-Aug-31 12:33N 33°44' W 118°15'0 0.0
2015-Aug-31 11:32N 33°44' W 118°15'0 0.0
2015-Aug-31 10:32N 33°44' W 118°15'0 0.0
2015-Aug-31 09:31N 33°44' W 118°15'0 0.0
2015-Aug-31 08:31N 33°44' W 118°15'0 0.0
2015-Aug-31 07:31N 33°44' W 118°15'0 0.0
2015-Aug-31 06:33N 33°44' W 118°15'0 0.0
2015-Aug-31 05:33N 33°44' W 118°15'0 0.0
2015-Aug-31 04:23N 33°44' W 118°15'0 0.0
2015-Aug-31 03:29N 33°44' W 118°15'0 0.0
2015-Aug-31 02:31N 33°44' W 118°15'0 0.0
2015-Aug-31 01:31N 33°44' W 118°15'0 0.0
2015-Aug-31 00:31N 33°44' W 118°15'0 0.0
2015-Aug-30 23:33N 33°44' W 118°15'0 0.0
2015-Aug-30 22:34N 33°44' W 118°15'2 2.0
2015-Aug-30 21:34N 33°42' W 118°14'8 8.1
2015-Aug-30 20:33N 33°37' W 118°22'1211.7
2015-Aug-30 19:33N 33°42' W 118°34'1312.6
2015-Aug-30 18:33N 33°48' W 118°47'3115.6
2015-Aug-30 16:33N 34°03' W 119°20'2314.9
2015-Aug-30 15:00N 34°06' W 119°48'4615.4 300 / 261012.4 5.4 21.515.321.0
2015-Aug-30 12:00N 34°18' W 120°42'2718.7 330 / 211014.110.8 17.916.419.0
2015-Aug-30 10:31N 34°38' W 121°05'4118.5
2015-Aug-30 08:16N 35°12' W 121°34'3716.1
2015-Aug-30 06:00N 35°42' W 122°00'5117.0 320 / 221016.210.8 18.016.319.0
2015-Aug-30 03:00N 36°24' W 122°36'3821.1 320 / 121016.210.8 18.416.020.0
2015-Aug-30 01:11N 36°58' W 122°58'1518.6
2015-Aug-30 00:24N 37°10' W 123°07'410.3
2015-Aug-30 00:00N 37°12' W 123°12'2024.2 270 / 41016.710.8 0.520.815.819.0
2015-Aug-29 23:11N 37°30' W 123°21'1318.1
2015-Aug-29 22:28N 37°41' W 123°29'1718.5
2015-Aug-29 21:33N 37°56' W 123°39'1818.1
2015-Aug-29 20:33N 38°12' W 123°50'1817.9
2015-Aug-29 19:33N 38°28' W 124°01'8117.7
2015-Aug-29 15:00N 39°42' W 124°42'5016.6 180 / 161013.110.8 17.716.418.0
2015-Aug-29 12:00N 40°30' W 125°00'15617.3 210 / 201009.910.8 17.115.417.0
2015-Aug-29 03:00N 43°06' W 125°06'2026.3 130 / 101006.3 5.4 16.915.918.0
2015-Aug-29 02:14N 43°26' W 125°12'3218.7
2015-Aug-29 00:31N 43°57' W 125°12'6218.6
2015-Aug-28 21:12N 44°59' W 125°15'2018.5
2015-Aug-28 20:08N 45°19' W 125°16'1418.9
2015-Aug-28 19:25N 45°32' W 125°17'1719.0
2015-Aug-28 18:33N 45°49' W 125°17'1918.6
2015-Aug-28 17:33N 46°07' W 125°18'1918.6
2015-Aug-28 16:32N 46°26' W 125°18'1918.9
2015-Aug-28 15:33N 46°45' W 125°19'5191.7
2015-Aug-28 15:00N 45°54' W 125°18'11438.0 210 / 101014.710.8 0.517.814.918.0
2015-Aug-28 12:00N 47°48' W 125°18'3018.8 170 / 251013.2 5.4 16.414.918.0
2015-Aug-28 10:25N 48°17' W 125°11'1517.2
2015-Aug-28 09:33N 48°30' W 125°01'1717.4
2015-Aug-28 08:33N 48°29' W 124°35'1818.0
2015-Aug-28 07:33N 48°22' W 124°10'1817.3
2015-Aug-28 06:32N 48°17' W 123°44'1414.0
2015-Aug-28 05:33N 48°22' W 123°25'1111.2
2015-Aug-28 04:33N 48°30' W 123°12'1616.0
2015-Aug-28 03:33N 48°45' W 123°06'1414.2
2015-Aug-28 02:33N 48°58' W 123°15'9 9.4
2015-Aug-28 01:33N 49°07' W 123°16'1010.2
2015-Aug-28 00:33N 49°09' W 123°01'4 3.9
2015-Aug-27 23:28N 49°11' W 122°55'0 0.0
2015-Aug-27 22:28N 49°11' W 122°55'0 0.0
2015-Aug-27 21:33N 49°11' W 122°55'0 0.0
2015-Aug-27 20:33N 49°11' W 122°55'0 0.0
2015-Aug-27 19:32N 49°11' W 122°55'0 0.0
2015-Aug-27 18:32N 49°11' W 122°55'0 0.0
2015-Aug-27 17:29N 49°11' W 122°55'0 0.0
2015-Aug-27 16:31N 49°11' W 122°55'0 0.0
2015-Aug-27 15:25N 49°11' W 122°55'0 0.0
2015-Aug-27 14:24N 49°11' W 122°55'0 0.0
2015-Aug-27 13:30N 49°11' W 122°55'0 0.0
2015-Aug-27 12:29N 49°11' W 122°55'0 0.0
2015-Aug-27 11:29N 49°11' W 122°55'0 0.0
2015-Aug-27 10:32N 49°11' W 122°55'0 0.0
2015-Aug-27 09:28N 49°11' W 122°55'0 0.0
2015-Aug-27 08:28N 49°11' W 122°55'0 0.0
2015-Aug-27 07:33N 49°11' W 122°55'0 0.0
2015-Aug-27 06:33N 49°11' W 122°55'0 0.0
2015-Aug-27 05:32N 49°11' W 122°55'0 0.0
2015-Aug-27 04:32N 49°11' W 122°55'0 0.0
2015-Aug-27 03:31N 49°11' W 122°55'0 0.0
2015-Aug-27 02:31N 49°11' W 122°55'0 0.0
2015-Aug-27 01:31N 49°11' W 122°55'0 0.0
2015-Aug-27 00:30N 49°11' W 122°55'0 0.0
2015-Aug-26 23:33N 49°11' W 122°55'0 0.0
2015-Aug-26 22:29N 49°11' W 122°55'0 0.0
2015-Aug-26 21:32N 49°11' W 122°55'2 1.8
2015-Aug-26 20:33N 49°10' W 122°56'1010.0
2015-Aug-26 19:33N 49°07' W 123°11'6 6.4
2015-Aug-26 18:33N 49°03' W 123°18'1616.0
2015-Aug-26 17:33N 48°50' W 123°02'1514.8
2015-Aug-26 16:33N 48°38' W 123°14'1414.2
2015-Aug-26 15:33N 48°24' W 123°13'1212.2
2015-Aug-26 14:33N 48°15' W 123°26'1010.0
2015-Aug-26 13:32N 48°11' W 123°12'1818.6
2015-Aug-26 12:34N 48°10' W 122°45'2020.0
2015-Aug-26 11:34N 47°54' W 122°28'1918.5
2015-Aug-26 10:34N 47°35' W 122°26'1616.1
2015-Aug-26 09:34N 47°19' W 122°27'5 4.9
2015-Aug-26 08:33N 47°15' W 122°23'0 0.0
2015-Aug-26 06:32N 47°15' W 122°23'0 0.0
2015-Aug-26 05:31N 47°15' W 122°23'0 0.0
2015-Aug-26 04:31N 47°15' W 122°23'0 0.0
2015-Aug-26 03:30N 47°15' W 122°23'0 0.0
2015-Aug-26 02:30N 47°15' W 122°23'0 0.0
2015-Aug-26 01:05N 47°15' W 122°23'0 0.0
2015-Aug-26 00:29N 47°15' W 122°23'0 0.0
2015-Aug-25 23:29N 47°15' W 122°23'0 0.0
2015-Aug-25 22:28N 47°15' W 122°23'0 0.0
2015-Aug-25 21:28N 47°15' W 122°23'0 0.0
2015-Aug-25 20:33N 47°15' W 122°23'0 0.0
2015-Aug-25 19:33N 47°15' W 122°23'0 0.0
2015-Aug-25 18:33N 47°15' W 122°23'0 0.0
2015-Aug-25 17:32N 47°15' W 122°23'0 0.0
2015-Aug-25 16:32N 47°15' W 122°23'0 0.0
2015-Aug-25 15:31N 47°15' W 122°23'0 0.0
2015-Aug-25 14:31N 47°15' W 122°23'0 0.0
2015-Aug-25 13:30N 47°15' W 122°23'0 0.0
2015-Aug-25 12:30N 47°15' W 122°23'0 0.0
2015-Aug-25 11:24N 47°15' W 122°23'0 0.0
2015-Aug-25 10:23N 47°15' W 122°23'0 0.0
2015-Aug-25 07:22N 47°15' W 122°23'0 0.0
2015-Aug-25 06:33N 47°15' W 122°23'0 0.0
2015-Aug-25 05:33N 47°15' W 122°23'0 0.0
2015-Aug-25 04:32N 47°15' W 122°23'0 0.0
2015-Aug-25 03:23N 47°15' W 122°23'0 0.0
2015-Aug-24 21:17N 47°15' W 122°23'0 0.0
2015-Aug-24 20:32N 47°15' W 122°23'0 0.0
2015-Aug-24 16:18N 47°15' W 122°23'0 0.0
2015-Aug-24 13:13N 47°15' W 122°23'0 0.1
2015-Aug-24 12:33N 47°15' W 122°23'  

Dump ship's entire track history